sensor_id;sensor_type;location;lat;lon;timestamp;P1;durP1;ratioP1;P2;durP2;ratioP2
10295;SDS011;5193;51.032;6.356;2023-06-10T00:00:11;7.97;;;6.17;;
10295;SDS011;5193;51.032;6.356;2023-06-10T00:02:39;9.37;;;6.07;;
10295;SDS011;5193;51.032;6.356;2023-06-10T00:05:06;6.20;;;5.60;;
10295;SDS011;5193;51.032;6.356;2023-06-10T00:07:33;10.40;;;6.30;;
10295;SDS011;5193;51.032;6.356;2023-06-10T00:10:03;7.37;;;6.27;;
10295;SDS011;5193;51.032;6.356;2023-06-10T00:12:33;9.40;;;6.37;;
10295;SDS011;5193;51.032;6.356;2023-06-10T00:15:03;9.13;;;6.20;;
10295;SDS011;5193;51.032;6.356;2023-06-10T00:17:30;13.83;;;5.90;;
10295;SDS011;5193;51.032;6.356;2023-06-10T00:19:56;9.47;;;6.23;;
10295;SDS011;5193;51.032;6.356;2023-06-10T00:22:22;8.53;;;6.50;;
10295;SDS011;5193;51.032;6.356;2023-06-10T00:24:49;10.30;;;6.57;;
10295;SDS011;5193;51.032;6.356;2023-06-10T00:27:15;8.43;;;6.07;;
10295;SDS011;5193;51.032;6.356;2023-06-10T00:29:41;7.53;;;6.10;;
10295;SDS011;5193;51.032;6.356;2023-06-10T00:32:07;8.97;;;6.17;;
10295;SDS011;5193;51.032;6.356;2023-06-10T00:34:32;11.87;;;6.47;;
10295;SDS011;5193;51.032;6.356;2023-06-10T00:36:58;8.07;;;6.60;;
10295;SDS011;5193;51.032;6.356;2023-06-10T00:39:23;11.57;;;7.13;;
10295;SDS011;5193;51.032;6.356;2023-06-10T00:41:49;8.50;;;6.40;;
10295;SDS011;5193;51.032;6.356;2023-06-10T00:44:15;7.23;;;6.50;;
10295;SDS011;5193;51.032;6.356;2023-06-10T00:46:42;9.23;;;6.57;;
10295;SDS011;5193;51.032;6.356;2023-06-10T00:49:08;12.77;;;6.27;;
10295;SDS011;5193;51.032;6.356;2023-06-10T00:51:34;7.67;;;6.43;;
10295;SDS011;5193;51.032;6.356;2023-06-10T00:54:01;17.40;;;7.20;;
10295;SDS011;5193;51.032;6.356;2023-06-10T00:56:27;14.20;;;6.97;;
10295;SDS011;5193;51.032;6.356;2023-06-10T00:58:53;12.13;;;6.57;;
10295;SDS011;5193;51.032;6.356;2023-06-10T01:01:19;11.30;;;6.77;;
10295;SDS011;5193;51.032;6.356;2023-06-10T01:03:45;7.40;;;5.97;;
10295;SDS011;5193;51.032;6.356;2023-06-10T01:08:55;10.13;;;6.80;;
10295;SDS011;5193;51.032;6.356;2023-06-10T01:11:46;12.53;;;6.60;;
10295;SDS011;5193;51.032;6.356;2023-06-10T01:14:15;12.67;;;6.40;;
10295;SDS011;5193;51.032;6.356;2023-06-10T01:16:41;13.37;;;6.33;;
10295;SDS011;5193;51.032;6.356;2023-06-10T01:19:07;8.90;;;6.43;;
10295;SDS011;5193;51.032;6.356;2023-06-10T01:21:33;11.00;;;6.80;;
10295;SDS011;5193;51.032;6.356;2023-06-10T01:23:58;11.73;;;6.70;;
10295;SDS011;5193;51.032;6.356;2023-06-10T01:26:28;11.63;;;6.30;;
10295;SDS011;5193;51.032;6.356;2023-06-10T01:28:58;13.40;;;7.07;;
10295;SDS011;5193;51.032;6.356;2023-06-10T01:31:42;8.73;;;6.53;;
10295;SDS011;5193;51.032;6.356;2023-06-10T01:34:19;8.63;;;6.50;;
10295;SDS011;5193;51.032;6.356;2023-06-10T01:36:48;10.77;;;6.70;;
10295;SDS011;5193;51.032;6.356;2023-06-10T01:39:16;8.93;;;6.60;;
10295;SDS011;5193;51.032;6.356;2023-06-10T01:41:44;7.00;;;6.30;;
10295;SDS011;5193;51.032;6.356;2023-06-10T01:44:10;11.37;;;6.93;;
10295;SDS011;5193;51.032;6.356;2023-06-10T01:46:36;8.33;;;7.03;;
10295;SDS011;5193;51.032;6.356;2023-06-10T01:49:01;9.40;;;6.67;;
10295;SDS011;5193;51.032;6.356;2023-06-10T01:51:27;11.80;;;7.77;;
10295;SDS011;5193;51.032;6.356;2023-06-10T01:53:52;10.33;;;7.03;;
10295;SDS011;5193;51.032;6.356;2023-06-10T01:56:18;13.57;;;7.10;;
10295;SDS011;5193;51.032;6.356;2023-06-10T01:58:47;13.67;;;6.80;;
10295;SDS011;5193;51.032;6.356;2023-06-10T02:01:13;12.53;;;6.97;;
10295;SDS011;5193;51.032;6.356;2023-06-10T02:03:39;11.17;;;6.87;;
10295;SDS011;5193;51.032;6.356;2023-06-10T02:06:05;10.57;;;7.23;;
10295;SDS011;5193;51.032;6.356;2023-06-10T02:08:31;10.57;;;7.23;;
10295;SDS011;5193;51.032;6.356;2023-06-10T02:10:56;15.17;;;7.57;;
10295;SDS011;5193;51.032;6.356;2023-06-10T02:13:22;14.27;;;6.60;;
10295;SDS011;5193;51.032;6.356;2023-06-10T02:15:47;20.03;;;7.93;;
10295;SDS011;5193;51.032;6.356;2023-06-10T02:18:13;15.57;;;7.67;;
10295;SDS011;5193;51.032;6.356;2023-06-10T02:20:38;14.33;;;7.37;;
10295;SDS011;5193;51.032;6.356;2023-06-10T02:23:04;17.07;;;7.50;;
10295;SDS011;5193;51.032;6.356;2023-06-10T02:25:30;16.73;;;7.70;;
10295;SDS011;5193;51.032;6.356;2023-06-10T02:27:56;15.20;;;7.03;;
10295;SDS011;5193;51.032;6.356;2023-06-10T02:30:21;12.83;;;7.73;;
10295;SDS011;5193;51.032;6.356;2023-06-10T02:32:47;16.07;;;7.40;;
10295;SDS011;5193;51.032;6.356;2023-06-10T02:35:13;10.20;;;6.93;;
10295;SDS011;5193;51.032;6.356;2023-06-10T02:37:42;16.20;;;7.60;;
10295;SDS011;5193;51.032;6.356;2023-06-10T02:40:08;11.17;;;7.17;;
10295;SDS011;5193;51.032;6.356;2023-06-10T02:42:35;8.03;;;6.80;;
10295;SDS011;5193;51.032;6.356;2023-06-10T02:45:01;11.90;;;7.83;;
10295;SDS011;5193;51.032;6.356;2023-06-10T02:47:26;10.67;;;7.60;;
10295;SDS011;5193;51.032;6.356;2023-06-10T02:49:52;14.57;;;7.73;;
10295;SDS011;5193;51.032;6.356;2023-06-10T02:52:17;15.23;;;7.10;;
10295;SDS011;5193;51.032;6.356;2023-06-10T02:54:43;8.17;;;6.70;;
10295;SDS011;5193;51.032;6.356;2023-06-10T02:57:09;14.00;;;7.57;;
10295;SDS011;5193;51.032;6.356;2023-06-10T02:59:35;9.33;;;6.93;;
10295;SDS011;5193;51.032;6.356;2023-06-10T03:02:01;12.10;;;7.37;;
10295;SDS011;5193;51.032;6.356;2023-06-10T03:04:26;13.47;;;8.07;;
10295;SDS011;5193;51.032;6.356;2023-06-10T03:06:54;12.13;;;6.87;;
10295;SDS011;5193;51.032;6.356;2023-06-10T03:09:19;19.90;;;7.67;;
10295;SDS011;5193;51.032;6.356;2023-06-10T03:11:45;16.53;;;7.83;;
10295;SDS011;5193;51.032;6.356;2023-06-10T03:14:11;12.13;;;7.73;;
10295;SDS011;5193;51.032;6.356;2023-06-10T03:16:36;11.07;;;7.33;;
10295;SDS011;5193;51.032;6.356;2023-06-10T03:19:05;12.83;;;7.40;;
10295;SDS011;5193;51.032;6.356;2023-06-10T03:21:32;12.00;;;7.67;;
10295;SDS011;5193;51.032;6.356;2023-06-10T03:23:59;11.23;;;7.03;;
10295;SDS011;5193;51.032;6.356;2023-06-10T03:26:25;12.30;;;6.67;;
10295;SDS011;5193;51.032;6.356;2023-06-10T03:28:52;12.27;;;7.33;;
10295;SDS011;5193;51.032;6.356;2023-06-10T03:31:18;13.47;;;8.17;;
10295;SDS011;5193;51.032;6.356;2023-06-10T03:33:43;12.57;;;7.47;;
10295;SDS011;5193;51.032;6.356;2023-06-10T03:36:09;13.90;;;7.13;;
10295;SDS011;5193;51.032;6.356;2023-06-10T03:38:35;12.73;;;7.07;;
10295;SDS011;5193;51.032;6.356;2023-06-10T03:41:01;11.40;;;7.97;;
10295;SDS011;5193;51.032;6.356;2023-06-10T03:43:27;12.07;;;7.43;;
10295;SDS011;5193;51.032;6.356;2023-06-10T03:45:52;11.90;;;7.27;;
10295;SDS011;5193;51.032;6.356;2023-06-10T03:48:18;10.37;;;7.30;;
10295;SDS011;5193;51.032;6.356;2023-06-10T03:50:44;8.97;;;7.43;;
10295;SDS011;5193;51.032;6.356;2023-06-10T03:53:09;12.33;;;8.57;;
10295;SDS011;5193;51.032;6.356;2023-06-10T03:55:35;10.40;;;7.20;;
10295;SDS011;5193;51.032;6.356;2023-06-10T03:58:01;11.77;;;6.93;;
10295;SDS011;5193;51.032;6.356;2023-06-10T04:00:27;21.63;;;7.83;;
10295;SDS011;5193;51.032;6.356;2023-06-10T04:02:53;14.27;;;7.93;;
10295;SDS011;5193;51.032;6.356;2023-06-10T04:05:22;12.93;;;7.73;;
10295;SDS011;5193;51.032;6.356;2023-06-10T04:07:48;13.10;;;8.07;;
10295;SDS011;5193;51.032;6.356;2023-06-10T04:10:14;17.07;;;8.73;;
10295;SDS011;5193;51.032;6.356;2023-06-10T04:12:40;10.17;;;7.73;;
10295;SDS011;5193;51.032;6.356;2023-06-10T04:15:06;16.70;;;7.27;;
10295;SDS011;5193;51.032;6.356;2023-06-10T04:17:33;13.23;;;8.30;;
10295;SDS011;5193;51.032;6.356;2023-06-10T04:19:58;12.07;;;7.20;;
10295;SDS011;5193;51.032;6.356;2023-06-10T04:22:25;10.80;;;7.27;;
10295;SDS011;5193;51.032;6.356;2023-06-10T04:24:51;14.07;;;8.43;;
10295;SDS011;5193;51.032;6.356;2023-06-10T04:27:17;11.60;;;7.80;;
10295;SDS011;5193;51.032;6.356;2023-06-10T04:29:42;12.03;;;7.90;;
10295;SDS011;5193;51.032;6.356;2023-06-10T04:32:08;12.33;;;7.67;;
10295;SDS011;5193;51.032;6.356;2023-06-10T04:34:34;13.20;;;7.67;;
10295;SDS011;5193;51.032;6.356;2023-06-10T04:36:59;14.20;;;8.57;;
10295;SDS011;5193;51.032;6.356;2023-06-10T04:39:25;12.93;;;8.03;;
10295;SDS011;5193;51.032;6.356;2023-06-10T04:41:51;15.13;;;8.80;;
10295;SDS011;5193;51.032;6.356;2023-06-10T04:44:16;14.53;;;8.73;;
10295;SDS011;5193;51.032;6.356;2023-06-10T04:46:42;13.17;;;8.10;;
10295;SDS011;5193;51.032;6.356;2023-06-10T04:49:08;10.50;;;8.30;;
10295;SDS011;5193;51.032;6.356;2023-06-10T04:51:33;15.13;;;8.80;;
10295;SDS011;5193;51.032;6.356;2023-06-10T04:53:59;22.00;;;9.23;;
10295;SDS011;5193;51.032;6.356;2023-06-10T04:56:28;17.33;;;9.03;;
10295;SDS011;5193;51.032;6.356;2023-06-10T04:58:55;19.00;;;9.10;;
10295;SDS011;5193;51.032;6.356;2023-06-10T05:01:21;16.43;;;8.77;;
10295;SDS011;5193;51.032;6.356;2023-06-10T05:03:47;15.87;;;9.40;;
10295;SDS011;5193;51.032;6.356;2023-06-10T05:06:13;15.17;;;8.90;;
10295;SDS011;5193;51.032;6.356;2023-06-10T05:08:38;18.73;;;9.53;;
10295;SDS011;5193;51.032;6.356;2023-06-10T05:11:04;16.83;;;9.73;;
10295;SDS011;5193;51.032;6.356;2023-06-10T05:13:29;14.63;;;10.07;;
10295;SDS011;5193;51.032;6.356;2023-06-10T05:15:55;22.33;;;10.80;;
10295;SDS011;5193;51.032;6.356;2023-06-10T05:18:20;20.97;;;11.03;;
10295;SDS011;5193;51.032;6.356;2023-06-10T05:20:46;18.20;;;11.17;;
10295;SDS011;5193;51.032;6.356;2023-06-10T05:23:11;25.73;;;10.90;;
10295;SDS011;5193;51.032;6.356;2023-06-10T05:25:37;18.83;;;10.73;;
10295;SDS011;5193;51.032;6.356;2023-06-10T05:28:03;22.83;;;10.67;;
10295;SDS011;5193;51.032;6.356;2023-06-10T05:30:28;25.07;;;10.73;;
10295;SDS011;5193;51.032;6.356;2023-06-10T05:32:54;22.50;;;10.23;;
10295;SDS011;5193;51.032;6.356;2023-06-10T05:35:21;18.27;;;10.30;;
10295;SDS011;5193;51.032;6.356;2023-06-10T05:37:46;23.17;;;11.13;;
10295;SDS011;5193;51.032;6.356;2023-06-10T05:40:12;19.10;;;10.10;;
10295;SDS011;5193;51.032;6.356;2023-06-10T05:42:38;19.20;;;10.20;;
10295;SDS011;5193;51.032;6.356;2023-06-10T05:45:03;20.80;;;10.53;;
10295;SDS011;5193;51.032;6.356;2023-06-10T05:47:31;23.57;;;10.43;;
10295;SDS011;5193;51.032;6.356;2023-06-10T05:49:56;16.87;;;10.10;;
10295;SDS011;5193;51.032;6.356;2023-06-10T05:52:22;27.03;;;9.63;;
10295;SDS011;5193;51.032;6.356;2023-06-10T05:54:48;25.83;;;10.27;;
10295;SDS011;5193;51.032;6.356;2023-06-10T05:57:15;19.57;;;10.17;;
10295;SDS011;5193;51.032;6.356;2023-06-10T05:59:40;29.13;;;9.60;;
10295;SDS011;5193;51.032;6.356;2023-06-10T06:02:06;22.67;;;9.63;;
10295;SDS011;5193;51.032;6.356;2023-06-10T06:04:32;24.33;;;8.83;;
10295;SDS011;5193;51.032;6.356;2023-06-10T06:06:57;21.37;;;9.63;;
10295;SDS011;5193;51.032;6.356;2023-06-10T06:09:23;19.13;;;9.10;;
10295;SDS011;5193;51.032;6.356;2023-06-10T06:11:48;16.77;;;9.00;;
10295;SDS011;5193;51.032;6.356;2023-06-10T06:14:14;18.57;;;8.80;;
10295;SDS011;5193;51.032;6.356;2023-06-10T06:16:39;16.00;;;9.43;;
10295;SDS011;5193;51.032;6.356;2023-06-10T06:19:05;21.47;;;9.13;;
10295;SDS011;5193;51.032;6.356;2023-06-10T06:21:31;13.20;;;8.67;;
10295;SDS011;5193;51.032;6.356;2023-06-10T06:23:56;18.40;;;8.53;;
10295;SDS011;5193;51.032;6.356;2023-06-10T06:26:22;17.07;;;8.97;;
10295;SDS011;5193;51.032;6.356;2023-06-10T06:28:48;14.47;;;8.30;;
10295;SDS011;5193;51.032;6.356;2023-06-10T06:31:14;16.80;;;8.93;;
10295;SDS011;5193;51.032;6.356;2023-06-10T06:33:39;14.73;;;7.87;;
10295;SDS011;5193;51.032;6.356;2023-06-10T06:36:05;16.00;;;7.80;;
10295;SDS011;5193;51.032;6.356;2023-06-10T06:38:30;15.73;;;8.13;;
10295;SDS011;5193;51.032;6.356;2023-06-10T06:40:56;12.37;;;7.13;;
10295;SDS011;5193;51.032;6.356;2023-06-10T06:43:27;13.93;;;7.20;;
10295;SDS011;5193;51.032;6.356;2023-06-10T06:45:53;13.63;;;7.67;;
10295;SDS011;5193;51.032;6.356;2023-06-10T06:48:19;15.43;;;7.10;;
10295;SDS011;5193;51.032;6.356;2023-06-10T06:50:44;13.20;;;6.73;;
10295;SDS011;5193;51.032;6.356;2023-06-10T06:53:10;12.80;;;6.93;;
10295;SDS011;5193;51.032;6.356;2023-06-10T06:55:35;11.80;;;6.70;;
10295;SDS011;5193;51.032;6.356;2023-06-10T06:58:01;15.67;;;7.40;;
10295;SDS011;5193;51.032;6.356;2023-06-10T07:00:28;8.87;;;7.03;;
10295;SDS011;5193;51.032;6.356;2023-06-10T07:02:54;19.50;;;6.50;;
10295;SDS011;5193;51.032;6.356;2023-06-10T07:05:22;12.43;;;6.47;;
10295;SDS011;5193;51.032;6.356;2023-06-10T07:07:47;13.53;;;6.73;;
10295;SDS011;5193;51.032;6.356;2023-06-10T07:10:18;14.97;;;6.30;;
10295;SDS011;5193;51.032;6.356;2023-06-10T07:12:45;17.30;;;6.73;;
10295;SDS011;5193;51.032;6.356;2023-06-10T07:15:10;11.23;;;6.17;;
10295;SDS011;5193;51.032;6.356;2023-06-10T07:17:36;8.33;;;5.53;;
10295;SDS011;5193;51.032;6.356;2023-06-10T07:20:01;10.43;;;6.00;;
10295;SDS011;5193;51.032;6.356;2023-06-10T07:22:27;12.17;;;5.83;;
10295;SDS011;5193;51.032;6.356;2023-06-10T07:24:53;7.23;;;5.10;;
10295;SDS011;5193;51.032;6.356;2023-06-10T07:27:20;7.13;;;5.13;;
10295;SDS011;5193;51.032;6.356;2023-06-10T07:29:45;7.10;;;4.93;;
10295;SDS011;5193;51.032;6.356;2023-06-10T07:32:11;7.00;;;5.47;;
10295;SDS011;5193;51.032;6.356;2023-06-10T07:34:37;7.87;;;5.17;;
10295;SDS011;5193;51.032;6.356;2023-06-10T07:37:02;7.33;;;5.27;;
10295;SDS011;5193;51.032;6.356;2023-06-10T07:39:28;6.10;;;5.13;;
10295;SDS011;5193;51.032;6.356;2023-06-10T07:41:53;7.83;;;5.07;;
10295;SDS011;5193;51.032;6.356;2023-06-10T07:44:21;8.40;;;5.13;;
10295;SDS011;5193;51.032;6.356;2023-06-10T07:46:47;8.30;;;4.93;;
10295;SDS011;5193;51.032;6.356;2023-06-10T07:49:13;5.60;;;4.43;;
10295;SDS011;5193;51.032;6.356;2023-06-10T07:51:39;7.17;;;5.00;;
10295;SDS011;5193;51.032;6.356;2023-06-10T07:54:04;6.97;;;5.10;;
10295;SDS011;5193;51.032;6.356;2023-06-10T07:56:30;6.93;;;5.10;;
10295;SDS011;5193;51.032;6.356;2023-06-10T07:58:56;6.13;;;4.63;;
10295;SDS011;5193;51.032;6.356;2023-06-10T08:01:22;5.70;;;5.20;;
10295;SDS011;5193;51.032;6.356;2023-06-10T08:03:48;6.40;;;5.20;;
10295;SDS011;5193;51.032;6.356;2023-06-10T08:06:14;6.20;;;5.07;;
10295;SDS011;5193;51.032;6.356;2023-06-10T08:08:41;9.87;;;5.40;;
10295;SDS011;5193;51.032;6.356;2023-06-10T08:11:08;7.90;;;5.43;;
10295;SDS011;5193;51.032;6.356;2023-06-10T08:13:36;7.47;;;5.00;;
10295;SDS011;5193;51.032;6.356;2023-06-10T08:16:02;10.03;;;5.30;;
10295;SDS011;5193;51.032;6.356;2023-06-10T08:18:28;10.37;;;5.50;;
10295;SDS011;5193;51.032;6.356;2023-06-10T08:20:54;6.03;;;4.90;;
10295;SDS011;5193;51.032;6.356;2023-06-10T08:23:20;8.93;;;5.23;;
10295;SDS011;5193;51.032;6.356;2023-06-10T08:25:45;9.27;;;5.20;;
10295;SDS011;5193;51.032;6.356;2023-06-10T08:28:11;9.97;;;5.27;;
10295;SDS011;5193;51.032;6.356;2023-06-10T08:30:36;7.83;;;4.90;;
10295;SDS011;5193;51.032;6.356;2023-06-10T08:33:02;6.53;;;5.07;;
10295;SDS011;5193;51.032;6.356;2023-06-10T08:35:28;7.33;;;4.93;;
10295;SDS011;5193;51.032;6.356;2023-06-10T08:37:53;6.37;;;5.40;;
10295;SDS011;5193;51.032;6.356;2023-06-10T08:40:19;7.33;;;5.83;;
10295;SDS011;5193;51.032;6.356;2023-06-10T08:43:00;9.57;;;5.07;;
10295;SDS011;5193;51.032;6.356;2023-06-10T08:45:31;5.60;;;5.10;;
10295;SDS011;5193;51.032;6.356;2023-06-10T08:48:00;10.30;;;5.57;;
10295;SDS011;5193;51.032;6.356;2023-06-10T08:50:31;6.33;;;4.87;;
10295;SDS011;5193;51.032;6.356;2023-06-10T08:52:59;8.00;;;5.23;;
10295;SDS011;5193;51.032;6.356;2023-06-10T08:55:27;9.65;;;5.68;;
10295;SDS011;5193;51.032;6.356;2023-06-10T08:57:57;11.73;;;5.30;;
10295;SDS011;5193;51.032;6.356;2023-06-10T09:00:24;15.73;;;5.88;;
10295;SDS011;5193;51.032;6.356;2023-06-10T09:02:51;9.68;;;5.15;;
10295;SDS011;5193;51.032;6.356;2023-06-10T09:05:17;12.98;;;5.97;;
10295;SDS011;5193;51.032;6.356;2023-06-10T09:07:42;7.90;;;5.07;;
10295;SDS011;5193;51.032;6.356;2023-06-10T09:10:11;12.75;;;5.53;;
10295;SDS011;5193;51.032;6.356;2023-06-10T09:12:37;10.27;;;5.38;;
10295;SDS011;5193;51.032;6.356;2023-06-10T09:15:05;9.77;;;5.35;;
10295;SDS011;5193;51.032;6.356;2023-06-10T09:17:32;14.65;;;6.07;;
10295;SDS011;5193;51.032;6.356;2023-06-10T09:19:59;9.05;;;6.07;;
10295;SDS011;5193;51.032;6.356;2023-06-10T09:22:27;6.32;;;5.18;;
10295;SDS011;5193;51.032;6.356;2023-06-10T09:25:03;7.55;;;5.15;;
10295;SDS011;5193;51.032;6.356;2023-06-10T09:27:40;10.32;;;5.70;;
10295;SDS011;5193;51.032;6.356;2023-06-10T09:30:34;8.07;;;5.80;;
10295;SDS011;5193;51.032;6.356;2023-06-10T09:33:01;11.07;;;5.43;;
10295;SDS011;5193;51.032;6.356;2023-06-10T09:35:28;8.07;;;5.68;;
10295;SDS011;5193;51.032;6.356;2023-06-10T09:37:58;8.73;;;5.05;;
10295;SDS011;5193;51.032;6.356;2023-06-10T09:40:26;8.20;;;5.55;;
10295;SDS011;5193;51.032;6.356;2023-06-10T09:42:53;14.57;;;5.88;;
10295;SDS011;5193;51.032;6.356;2023-06-10T09:45:23;6.78;;;5.28;;
10295;SDS011;5193;51.032;6.356;2023-06-10T09:47:54;10.00;;;6.20;;
10295;SDS011;5193;51.032;6.356;2023-06-10T09:50:20;7.15;;;4.95;;
10295;SDS011;5193;51.032;6.356;2023-06-10T09:52:46;7.70;;;5.68;;
10295;SDS011;5193;51.032;6.356;2023-06-10T09:55:15;6.78;;;5.15;;
10295;SDS011;5193;51.032;6.356;2023-06-10T09:57:41;9.52;;;4.70;;
10295;SDS011;5193;51.032;6.356;2023-06-10T10:00:09;8.60;;;5.72;;
10295;SDS011;5193;51.032;6.356;2023-06-10T10:02:46;7.93;;;5.05;;
10295;SDS011;5193;51.032;6.356;2023-06-10T10:05:16;6.25;;;5.65;;
10295;SDS011;5193;51.032;6.356;2023-06-10T10:07:43;6.70;;;5.10;;
10295;SDS011;5193;51.032;6.356;2023-06-10T10:10:10;7.60;;;5.80;;
10295;SDS011;5193;51.032;6.356;2023-06-10T10:12:39;6.78;;;4.65;;
10295;SDS011;5193;51.032;6.356;2023-06-10T10:15:06;9.02;;;5.20;;
10295;SDS011;5193;51.032;6.356;2023-06-10T10:17:34;9.50;;;5.35;;
10295;SDS011;5193;51.032;6.356;2023-06-10T10:20:03;7.32;;;5.05;;
10295;SDS011;5193;51.032;6.356;2023-06-10T10:22:31;6.80;;;5.07;;
10295;SDS011;5193;51.032;6.356;2023-06-10T10:25:08;10.70;;;5.82;;
10295;SDS011;5193;51.032;6.356;2023-06-10T10:27:48;8.55;;;5.50;;
10295;SDS011;5193;51.032;6.356;2023-06-10T10:30:20;11.23;;;5.47;;
10295;SDS011;5193;51.032;6.356;2023-06-10T10:33:06;7.50;;;5.65;;
10295;SDS011;5193;51.032;6.356;2023-06-10T10:35:37;9.30;;;5.25;;
10295;SDS011;5193;51.032;6.356;2023-06-10T10:38:03;11.25;;;5.40;;
10295;SDS011;5193;51.032;6.356;2023-06-10T10:40:30;7.03;;;5.75;;
10295;SDS011;5193;51.032;6.356;2023-06-10T10:42:57;7.03;;;5.18;;
10295;SDS011;5193;51.032;6.356;2023-06-10T10:45:27;6.53;;;5.30;;
10295;SDS011;5193;51.032;6.356;2023-06-10T10:47:54;9.82;;;6.28;;
10295;SDS011;5193;51.032;6.356;2023-06-10T10:50:21;7.18;;;6.00;;
10295;SDS011;5193;51.032;6.356;2023-06-10T10:55:18;12.30;;;5.97;;
10295;SDS011;5193;51.032;6.356;2023-06-10T10:57:45;10.00;;;6.05;;
10295;SDS011;5193;51.032;6.356;2023-06-10T11:00:29;8.77;;;5.80;;
10295;SDS011;5193;51.032;6.356;2023-06-10T11:02:57;7.50;;;6.10;;
10295;SDS011;5193;51.032;6.356;2023-06-10T11:05:40;9.80;;;5.03;;
10295;SDS011;5193;51.032;6.356;2023-06-10T11:08:13;6.32;;;5.72;;
10295;SDS011;5193;51.032;6.356;2023-06-10T11:10:39;10.77;;;5.95;;
10295;SDS011;5193;51.032;6.356;2023-06-10T11:15:47;11.20;;;6.05;;
10295;SDS011;5193;51.032;6.356;2023-06-10T11:18:20;14.02;;;6.22;;
10295;SDS011;5193;51.032;6.356;2023-06-10T11:28:40;6.45;;;5.40;;
10295;SDS011;5193;51.032;6.356;2023-06-10T11:31:07;7.70;;;5.82;;
10295;SDS011;5193;51.032;6.356;2023-06-10T11:33:33;13.85;;;5.03;;
10295;SDS011;5193;51.032;6.356;2023-06-10T11:36:06;10.00;;;5.60;;
10295;SDS011;5193;51.032;6.356;2023-06-10T11:38:32;5.95;;;5.35;;
10295;SDS011;5193;51.032;6.356;2023-06-10T11:40:58;6.70;;;5.47;;
10295;SDS011;5193;51.032;6.356;2023-06-10T11:43:24;7.32;;;5.00;;
10295;SDS011;5193;51.032;6.356;2023-06-10T11:45:53;7.68;;;5.50;;
10295;SDS011;5193;51.032;6.356;2023-06-10T11:48:20;6.00;;;5.38;;
10295;SDS011;5193;51.032;6.356;2023-06-10T11:50:45;8.02;;;5.75;;
10295;SDS011;5193;51.032;6.356;2023-06-10T11:53:11;7.40;;;5.40;;
10295;SDS011;5193;51.032;6.356;2023-06-10T11:55:43;7.82;;;5.88;;
10295;SDS011;5193;51.032;6.356;2023-06-10T11:58:13;6.90;;;5.55;;
10295;SDS011;5193;51.032;6.356;2023-06-10T12:00:47;8.05;;;5.50;;
10295;SDS011;5193;51.032;6.356;2023-06-10T12:03:13;5.90;;;5.30;;
10295;SDS011;5193;51.032;6.356;2023-06-10T12:05:39;7.30;;;5.72;;
10295;SDS011;5193;51.032;6.356;2023-06-10T12:08:08;8.77;;;5.63;;
10295;SDS011;5193;51.032;6.356;2023-06-10T12:10:41;7.80;;;5.40;;
10295;SDS011;5193;51.032;6.356;2023-06-10T12:13:08;6.10;;;5.07;;
10295;SDS011;5193;51.032;6.356;2023-06-10T12:15:34;10.48;;;5.47;;
10295;SDS011;5193;51.032;6.356;2023-06-10T12:18:00;8.65;;;6.63;;
10295;SDS011;5193;51.032;6.356;2023-06-10T12:20:28;11.13;;;7.10;;
10295;SDS011;5193;51.032;6.356;2023-06-10T12:22:54;10.48;;;6.70;;
10295;SDS011;5193;51.032;6.356;2023-06-10T12:25:29;8.60;;;6.03;;
10295;SDS011;5193;51.032;6.356;2023-06-10T12:27:55;13.05;;;6.07;;
10295;SDS011;5193;51.032;6.356;2023-06-10T12:30:23;7.78;;;5.57;;
10295;SDS011;5193;51.032;6.356;2023-06-10T12:32:51;12.43;;;5.80;;
10295;SDS011;5193;51.032;6.356;2023-06-10T12:35:21;8.82;;;5.70;;
10295;SDS011;5193;51.032;6.356;2023-06-10T12:40:34;6.80;;;6.07;;
10295;SDS011;5193;51.032;6.356;2023-06-10T12:43:02;10.48;;;5.03;;
10295;SDS011;5193;51.032;6.356;2023-06-10T12:45:32;7.38;;;5.63;;
10295;SDS011;5193;51.032;6.356;2023-06-10T12:48:10;5.93;;;5.30;;
10295;SDS011;5193;51.032;6.356;2023-06-10T12:50:43;8.63;;;5.63;;
10295;SDS011;5193;51.032;6.356;2023-06-10T12:53:09;6.13;;;5.57;;
10295;SDS011;5193;51.032;6.356;2023-06-10T12:55:38;5.57;;;5.07;;
10295;SDS011;5193;51.032;6.356;2023-06-10T12:58:04;8.57;;;5.40;;
10295;SDS011;5193;51.032;6.356;2023-06-10T13:00:30;6.20;;;5.40;;
10295;SDS011;5193;51.032;6.356;2023-06-10T13:02:56;8.80;;;5.53;;
10295;SDS011;5193;51.032;6.356;2023-06-10T13:05:22;6.28;;;5.25;;
10295;SDS011;5193;51.032;6.356;2023-06-10T13:07:48;7.75;;;5.60;;
10295;SDS011;5193;51.032;6.356;2023-06-10T13:10:14;6.32;;;5.50;;
10295;SDS011;5193;51.032;6.356;2023-06-10T13:12:41;6.13;;;5.47;;
10295;SDS011;5193;51.032;6.356;2023-06-10T13:15:07;7.28;;;6.00;;
10295;SDS011;5193;51.032;6.356;2023-06-10T13:17:33;9.20;;;5.53;;
10295;SDS011;5193;51.032;6.356;2023-06-10T13:19:59;9.18;;;5.72;;
10295;SDS011;5193;51.032;6.356;2023-06-10T13:22:26;8.93;;;5.90;;
10295;SDS011;5193;51.032;6.356;2023-06-10T13:24:52;7.35;;;5.60;;
10295;SDS011;5193;51.032;6.356;2023-06-10T13:27:18;6.13;;;5.53;;
10295;SDS011;5193;51.032;6.356;2023-06-10T13:29:43;6.93;;;5.07;;
10295;SDS011;5193;51.032;6.356;2023-06-10T13:32:09;6.70;;;4.75;;
10295;SDS011;5193;51.032;6.356;2023-06-10T13:34:35;7.30;;;4.95;;
10295;SDS011;5193;51.032;6.356;2023-06-10T13:37:01;5.13;;;4.72;;
10295;SDS011;5193;51.032;6.356;2023-06-10T13:39:28;5.38;;;4.88;;
10295;SDS011;5193;51.032;6.356;2023-06-10T13:41:54;6.07;;;4.55;;
10295;SDS011;5193;51.032;6.356;2023-06-10T13:44:20;5.95;;;5.15;;
10295;SDS011;5193;51.032;6.356;2023-06-10T13:46:45;5.95;;;4.93;;
10295;SDS011;5193;51.032;6.356;2023-06-10T13:49:11;5.63;;;4.82;;
10295;SDS011;5193;51.032;6.356;2023-06-10T13:51:36;8.13;;;5.45;;
10295;SDS011;5193;51.032;6.356;2023-06-10T13:54:02;5.93;;;4.78;;
10295;SDS011;5193;51.032;6.356;2023-06-10T13:56:27;8.20;;;5.40;;
10295;SDS011;5193;51.032;6.356;2023-06-10T13:58:53;5.55;;;4.70;;
10295;SDS011;5193;51.032;6.356;2023-06-10T14:01:19;6.35;;;5.20;;
10295;SDS011;5193;51.032;6.356;2023-06-10T14:03:44;9.32;;;4.57;;
10295;SDS011;5193;51.032;6.356;2023-06-10T14:06:10;5.88;;;4.93;;
10295;SDS011;5193;51.032;6.356;2023-06-10T14:08:38;11.02;;;5.10;;
10295;SDS011;5193;51.032;6.356;2023-06-10T14:11:04;6.45;;;4.72;;
10295;SDS011;5193;51.032;6.356;2023-06-10T14:13:30;6.20;;;4.78;;
10295;SDS011;5193;51.032;6.356;2023-06-10T14:15:56;6.60;;;4.93;;
10295;SDS011;5193;51.032;6.356;2023-06-10T14:18:22;9.75;;;5.20;;
10295;SDS011;5193;51.032;6.356;2023-06-10T14:20:48;6.75;;;5.13;;
10295;SDS011;5193;51.032;6.356;2023-06-10T14:23:13;5.40;;;4.82;;
10295;SDS011;5193;51.032;6.356;2023-06-10T14:25:39;5.35;;;4.85;;
10295;SDS011;5193;51.032;6.356;2023-06-10T14:28:04;5.68;;;5.18;;
10295;SDS011;5193;51.032;6.356;2023-06-10T14:30:30;6.25;;;5.28;;
10295;SDS011;5193;51.032;6.356;2023-06-10T14:32:55;5.60;;;4.93;;
10295;SDS011;5193;51.032;6.356;2023-06-10T14:35:21;5.78;;;4.97;;
10295;SDS011;5193;51.032;6.356;2023-06-10T14:37:47;6.50;;;4.68;;
10295;SDS011;5193;51.032;6.356;2023-06-10T14:40:12;8.07;;;4.50;;
10295;SDS011;5193;51.032;6.356;2023-06-10T14:42:38;8.10;;;5.50;;
10295;SDS011;5193;51.032;6.356;2023-06-10T14:45:04;7.03;;;4.68;;
10295;SDS011;5193;51.032;6.356;2023-06-10T14:47:30;6.72;;;4.75;;
10295;SDS011;5193;51.032;6.356;2023-06-10T14:49:56;5.90;;;5.22;;
10295;SDS011;5193;51.032;6.356;2023-06-10T14:52:21;5.30;;;4.80;;
10295;SDS011;5193;51.032;6.356;2023-06-10T14:54:47;7.25;;;4.72;;
10295;SDS011;5193;51.032;6.356;2023-06-10T14:57:12;6.95;;;4.97;;
10295;SDS011;5193;51.032;6.356;2023-06-10T14:59:38;5.45;;;4.95;;
10295;SDS011;5193;51.032;6.356;2023-06-10T15:02:03;6.25;;;4.90;;
10295;SDS011;5193;51.032;6.356;2023-06-10T15:04:29;5.07;;;4.57;;
10295;SDS011;5193;51.032;6.356;2023-06-10T15:06:55;5.72;;;4.97;;
10295;SDS011;5193;51.032;6.356;2023-06-10T15:09:20;5.38;;;4.68;;